Time;durP1;ratioP1;P1;durP2;ratioP2;P2;SDS_P1;SDS_P2;PMS_P1;PMS_P2;Temp;Humidity;BMP_temperature;BMP_pressure;BME280_temperature;BME280_humidity;BME280_pressure;Samples;Min_cycle;Max_cycle;Signal;HPM_P1;HPM_P2
2021/09/15 00:00:52;;;;;;;0.50;0.50;;;;;;;18.78;100.00;99911.78;5085331;28;20996;-55
2021/09/15 00:03:19;;;;;;;0.50;0.40;;;;;;;18.60;100.00;99914.72;5060185;28;20457;-55
2021/09/15 00:05:46;;;;;;;0.40;0.30;;;;;;;18.58;100.00;99910.41;5072325;28;20804;-54
2021/09/15 00:08:13;;;;;;;0.73;0.73;;;;;;;18.76;100.00;99913.69;5072079;28;20493;-55
2021/09/15 00:10:40;;;;;;;0.60;0.40;;;;;;;18.75;100.00;99911.97;5072293;28;20500;-55
2021/09/15 00:13:07;;;;;;;4.20;1.57;;;;;;;18.82;100.00;99898.00;5072242;28;20499;-54
2021/09/15 00:15:34;;;;;;;0.40;0.20;;;;;;;18.83;100.00;99901.56;5072457;28;20481;-54
2021/09/15 00:18:01;;;;;;;0.50;0.40;;;;;;;18.74;100.00;99896.78;5072308;28;21048;-54
2021/09/15 00:20:28;;;;;;;0.50;0.40;;;;;;;18.75;100.00;99899.38;5072099;28;20486;-55
2021/09/15 00:22:55;;;;;;;3.03;2.83;;;;;;;18.78;100.00;99895.63;5072193;28;20446;-54
2021/09/15 00:25:22;;;;;;;0.40;0.30;;;;;;;18.67;100.00;99898.19;5072027;28;20482;-55
2021/09/15 00:27:49;;;;;;;0.40;0.30;;;;;;;18.60;100.00;99895.00;5071927;28;20502;-55
2021/09/15 00:30:16;;;;;;;0.50;0.40;;;;;;;18.59;100.00;99891.44;5054320;28;20445;-55
2021/09/15 00:32:43;;;;;;;0.50;0.43;;;;;;;18.61;100.00;99892.19;5072213;28;20515;-54
2021/09/15 00:35:11;;;;;;;0.50;0.30;;;;;;;18.58;100.00;99896.94;5072149;28;20480;-54
2021/09/15 00:37:39;;;;;;;0.40;0.30;;;;;;;18.45;100.00;99893.34;5072096;28;20497;-54
2021/09/15 00:40:07;;;;;;;0.50;0.30;;;;;;;18.47;100.00;99900.34;5071800;28;20449;-55
2021/09/15 00:42:34;;;;;;;0.70;0.70;;;;;;;18.35;100.00;99893.97;5072267;28;20478;-54
2021/09/15 00:45:03;;;;;;;0.40;0.30;;;;;;;18.28;100.00;99886.41;5072144;28;20472;-55
2021/09/15 00:47:30;;;;;;;0.40;0.20;;;;;;;18.18;100.00;99879.91;5071911;28;20528;-54
2021/09/15 00:49:56;;;;;;;0.80;0.77;;;;;;;18.24;100.00;99884.91;5071779;28;20478;-55
2021/09/15 00:52:23;;;;;;;0.80;0.63;;;;;;;18.13;100.00;99880.22;5071938;28;20446;-55
2021/09/15 00:54:52;;;;;;;4.30;1.53;;;;;;;18.07;100.00;99877.94;5071767;28;20938;-54
2021/09/15 00:57:19;;;;;;;3.20;2.93;;;;;;;18.10;100.00;99882.28;5071893;28;20504;-54
2021/09/15 00:59:46;;;;;;;0.43;0.30;;;;;;;18.12;100.00;99880.34;5076711;28;20483;-54
2021/09/15 01:02:13;;;;;;;0.97;0.97;;;;;;;18.05;100.00;99883.41;5068563;28;20955;-55
2021/09/15 01:04:40;;;;;;;0.40;0.30;;;;;;;18.16;100.00;99869.25;5070496;28;20454;-55
2021/09/15 01:07:09;;;;;;;0.40;0.30;;;;;;;18.17;100.00;99868.28;5071422;28;20517;-55
2021/09/15 01:09:37;;;;;;;0.50;0.30;;;;;;;18.28;100.00;99865.75;5071623;28;20809;-54
2021/09/15 01:12:06;;;;;;;2.67;0.93;;;;;;;18.32;100.00;99864.56;5054134;28;20446;-54
2021/09/15 01:14:33;;;;;;;0.60;0.60;;;;;;;18.34;100.00;99859.94;5071584;28;20446;-54
2021/09/15 01:17:00;;;;;;;0.40;0.30;;;;;;;18.40;100.00;99861.38;5071626;28;20990;-54
2021/09/15 01:19:27;;;;;;;0.53;0.50;;;;;;;18.34;100.00;99857.25;5071615;28;20564;-54
2021/09/15 01:21:55;;;;;;;1.50;1.50;;;;;;;18.40;100.00;99849.75;5075352;28;21012;-54
2021/09/15 01:24:24;;;;;;;0.40;0.20;;;;;;;18.40;100.00;99858.69;5062053;28;20453;-54
2021/09/15 01:26:52;;;;;;;0.40;0.30;;;;;;;18.39;100.00;99851.56;5075181;28;20498;-55
2021/09/15 01:29:33;;;;;;;0.40;0.30;;;;;;;18.47;100.00;99851.03;5075136;28;20481;-55
2021/09/15 01:32:14;;;;;;;0.40;0.20;;;;;;;18.29;100.00;99851.31;5075176;28;20489;-54
2021/09/15 01:34:53;;;;;;;0.40;0.20;;;;;;;18.36;100.00;99849.06;5075153;28;20446;-54
2021/09/15 01:37:20;;;;;;;2.00;1.80;;;;;;;18.25;100.00;99848.97;5055143;28;20871;-55
2021/09/15 01:39:47;;;;;;;4.60;1.17;;;;;;;18.35;100.00;99850.03;5068564;28;20496;-55
2021/09/15 01:42:14;;;;;;;0.40;0.20;;;;;;;18.24;100.00;99847.22;5075138;28;20481;-54
2021/09/15 01:44:46;;;;;;;0.50;0.30;;;;;;;18.31;100.00;99841.31;5074808;28;20453;-54
2021/09/15 01:47:15;;;;;;;3.90;2.30;;;;;;;18.22;100.00;99849.13;5075032;28;20478;-54
2021/09/15 01:49:43;;;;;;;2.50;0.70;;;;;;;18.17;100.00;99845.91;5074769;28;20446;-55
2021/09/15 01:52:14;;;;;;;1.50;1.23;;;;;;;18.34;100.00;99841.09;5074887;28;20481;-54
2021/09/15 01:54:41;;;;;;;0.60;0.53;;;;;;;18.15;100.00;99843.31;5074922;28;20445;-55
2021/09/15 01:57:08;;;;;;;1.63;0.70;;;;;;;18.18;100.00;99848.50;5074653;28;20510;-55
2021/09/15 01:59:35;;;;;;;0.70;0.70;;;;;;;18.13;100.00;99850.63;5078174;28;20484;-54
2021/09/15 02:02:02;;;;;;;0.40;0.20;;;;;;;18.01;100.00;99841.56;5074253;28;20964;-55
2021/09/15 02:04:30;;;;;;;0.40;0.30;;;;;;;18.01;100.00;99838.88;5072154;28;20454;-54
2021/09/15 02:06:57;;;;;;;0.43;0.30;;;;;;;18.06;100.00;99838.53;5074375;28;20493;-55
2021/09/15 02:09:24;;;;;;;0.50;0.33;;;;;;;18.17;100.00;99844.06;5074376;28;21033;-55
2021/09/15 02:11:50;;;;;;;0.40;0.30;;;;;;;18.06;100.00;99841.25;5074537;28;20967;-55
2021/09/15 02:14:17;;;;;;;0.50;0.30;;;;;;;18.15;100.00;99837.94;5074437;28;20485;-54
2021/09/15 02:16:45;;;;;;;0.43;0.33;;;;;;;17.98;100.00;99841.75;5074578;28;20504;-55
2021/09/15 02:19:12;;;;;;;1.73;1.63;;;;;;;18.06;100.00;99834.03;5074361;28;20450;-54
2021/09/15 02:21:39;;;;;;;0.40;0.20;;;;;;;17.99;100.00;99829.19;5074441;28;20511;-55
2021/09/15 02:24:06;;;;;;;0.40;0.30;;;;;;;17.98;100.00;99822.94;5074181;28;20533;-54
2021/09/15 02:26:34;;;;;;;0.40;0.20;;;;;;;18.12;100.00;99839.97;5074817;28;20528;-55
2021/09/15 02:29:02;;;;;;;0.40;0.20;;;;;;;18.25;100.00;99838.19;5074022;28;21047;-54
2021/09/15 02:31:30;;;;;;;0.47;0.40;;;;;;;18.16;100.00;99836.13;5072903;28;20993;-55
2021/09/15 02:33:57;;;;;;;0.63;0.63;;;;;;;17.95;100.00;99841.94;5074251;28;20477;-54
2021/09/15 02:36:24;;;;;;;0.50;0.40;;;;;;;17.94;100.00;99844.72;5074343;28;20458;-54
2021/09/15 02:38:51;;;;;;;0.40;0.30;;;;;;;17.96;100.00;99830.25;5060358;28;20878;-54
2021/09/15 02:41:18;;;;;;;0.40;0.20;;;;;;;18.01;100.00;99840.69;5074146;28;20473;-54
2021/09/15 02:43:45;;;;;;;0.47;0.33;;;;;;;17.95;100.00;99836.56;5073917;28;20449;-54
2021/09/15 02:46:13;;;;;;;0.47;0.27;;;;;;;18.03;100.00;99828.84;5055922;28;20488;-55
2021/09/15 02:48:39;;;;;;;0.40;0.40;;;;;;;17.90;100.00;99832.47;5073583;28;20526;-54
2021/09/15 02:51:06;;;;;;;0.83;0.73;;;;;;;17.92;100.00;99825.16;5073443;28;20489;-54
2021/09/15 02:53:33;;;;;;;0.57;0.57;;;;;;;17.87;100.00;99827.28;5073673;28;20478;-54
2021/09/15 02:56:00;;;;;;;0.53;0.50;;;;;;;18.04;100.00;99818.97;5073603;28;20486;-54
2021/09/15 02:58:27;;;;;;;0.87;0.57;;;;;;;17.95;100.00;99824.94;5073438;28;20523;-54
2021/09/15 03:00:54;;;;;;;0.60;0.43;;;;;;;17.91;100.00;99818.91;5086255;28;20849;-54
2021/09/15 03:03:21;;;;;;;3.40;2.10;;;;;;;18.02;100.00;99826.28;5061351;28;20450;-55
2021/09/15 03:05:48;;;;;;;0.40;0.20;;;;;;;17.93;100.00;99837.63;5073319;28;20452;-54
2021/09/15 03:08:15;;;;;;;0.40;0.20;;;;;;;18.00;100.00;99834.44;5073398;28;20493;-55
2021/09/15 03:10:42;;;;;;;5.23;3.50;;;;;;;17.90;100.00;99832.47;5073353;28;20454;-54
2021/09/15 03:13:09;;;;;;;0.40;0.30;;;;;;;17.99;100.00;99821.97;5073412;28;20866;-54
2021/09/15 03:15:36;;;;;;;0.77;0.77;;;;;;;18.12;100.00;99819.31;5073299;28;20449;-55
2021/09/15 03:18:03;;;;;;;1.80;1.33;;;;;;;17.86;100.00;99815.69;5073606;28;20465;-55
2021/09/15 03:20:32;;;;;;;0.40;0.30;;;;;;;17.98;100.00;99832.84;5072967;28;20454;-55
2021/09/15 03:22:59;;;;;;;0.40;0.30;;;;;;;18.03;100.00;99828.00;5073438;28;20503;-55
2021/09/15 03:25:26;;;;;;;0.40;0.30;;;;;;;18.09;100.00;99832.94;5073156;28;20481;-55
2021/09/15 03:27:53;;;;;;;0.77;0.77;;;;;;;18.16;100.00;99836.97;5072804;28;20529;-54
2021/09/15 03:30:20;;;;;;;0.40;0.20;;;;;;;18.13;100.00;99833.63;5055199;28;20507;-55
2021/09/15 03:32:47;;;;;;;0.47;0.30;;;;;;;18.11;100.00;99840.94;5072913;28;20965;-55
2021/09/15 03:35:14;;;;;;;0.67;0.63;;;;;;;18.16;100.00;99834.28;5072698;28;20492;-55
2021/09/15 03:37:41;;;;;;;0.40;0.20;;;;;;;18.07;100.00;99824.13;5072947;28;20524;-54
2021/09/15 03:40:09;;;;;;;1.90;1.07;;;;;;;18.13;100.00;99818.34;5072867;28;20449;-54
2021/09/15 03:42:36;;;;;;;0.50;0.40;;;;;;;18.14;100.00;99809.31;5072700;28;20872;-54
2021/09/15 03:45:04;;;;;;;1.13;0.83;;;;;;;18.21;100.00;99817.81;5072592;28;20481;-54
2021/09/15 03:47:31;;;;;;;0.40;0.30;;;;;;;18.18;100.00;99816.19;5072651;28;20466;-54
2021/09/15 03:49:58;;;;;;;4.23;0.90;;;;;;;18.19;100.00;99819.75;5072847;28;20550;-55
2021/09/15 03:52:25;;;;;;;0.40;0.40;;;;;;;18.18;100.00;99820.72;5072589;28;20873;-54
2021/09/15 03:54:52;;;;;;;1.73;1.53;;;;;;;18.21;100.00;99817.81;5072575;28;20449;-54
2021/09/15 03:57:19;;;;;;;0.70;0.70;;;;;;;18.22;100.00;99823.09;5072453;28;21041;-55
2021/09/15 03:59:46;;;;;;;0.70;0.67;;;;;;;18.27;100.00;99812.03;5077299;28;20441;-55
2021/09/15 04:02:13;;;;;;;0.40;0.20;;;;;;;18.20;100.00;99816.09;5069127;28;20474;-54
2021/09/15 04:04:44;;;;;;;0.40;0.20;;;;;;;18.21;100.00;99824.06;5071394;28;20446;-55
2021/09/15 04:07:11;;;;;;;0.50;0.30;;;;;;;18.17;100.00;99810.94;5042408;28;20506;-54
2021/09/15 04:09:37;;;;;;;0.60;0.60;;;;;;;18.02;100.00;99807.44;5071667;28;20517;-54
2021/09/15 04:12:05;;;;;;;0.40;0.20;;;;;;;18.18;100.00;99810.81;5072364;28;20486;-54
2021/09/15 04:14:32;;;;;;;1.90;1.90;;;;;;;18.13;100.00;99807.59;5072294;28;20655;-54
2021/09/15 04:16:59;;;;;;;1.93;1.33;;;;;;;18.06;100.00;99815.19;5072470;28;20508;-54
2021/09/15 04:19:26;;;;;;;1.17;1.17;;;;;;;18.20;100.00;99811.56;5072490;28;20493;-54
2021/09/15 04:21:53;;;;;;;1.23;1.23;;;;;;;18.16;100.00;99807.38;5072383;28;20445;-54
2021/09/15 04:32:37;;;;;;;0.60;0.60;;;;;;;18.31;100.00;99816.25;5060330;28;20457;-54
2021/09/15 04:35:04;;;;;;;0.70;0.67;;;;;;;18.35;100.00;99823.97;5072143;28;20481;-54
2021/09/15 04:37:31;;;;;;;0.50;0.40;;;;;;;18.35;100.00;99820.44;5072628;28;20448;-54
2021/09/15 04:39:58;;;;;;;0.50;0.43;;;;;;;18.39;100.00;99824.66;5072165;28;20445;-54
2021/09/15 04:42:25;;;;;;;0.50;0.30;;;;;;;18.41;100.00;99817.34;5072251;28;20474;-54
2021/09/15 04:44:52;;;;;;;0.60;0.60;;;;;;;18.73;100.00;99819.66;5071996;28;20453;-54
2021/09/15 04:47:19;;;;;;;0.60;0.60;;;;;;;18.53;100.00;99816.50;5071864;28;20466;-55
2021/09/15 04:49:46;;;;;;;0.40;0.20;;;;;;;18.39;100.00;99813.91;5071866;28;20911;-54
2021/09/15 04:52:13;;;;;;;0.73;0.73;;;;;;;18.23;100.00;99824.84;5071733;28;20500;-54
2021/09/15 04:54:39;;;;;;;0.40;0.20;;;;;;;18.30;100.00;99826.13;5072587;28;20485;-54
2021/09/15 04:57:06;;;;;;;0.87;0.87;;;;;;;18.31;100.00;99827.00;5075861;28;20505;-54
2021/09/15 04:59:33;;;;;;;0.43;0.30;;;;;;;18.19;100.00;99828.69;5078994;28;20437;-54
2021/09/15 05:02:00;;;;;;;1.03;1.03;;;;;;;18.21;100.00;99826.75;5075817;28;20504;-54
2021/09/15 05:04:27;;;;;;;0.93;0.83;;;;;;;18.28;100.00;99821.84;5072428;28;20993;-54
2021/09/15 05:06:55;;;;;;;0.80;0.80;;;;;;;18.31;100.00;99825.16;5076045;28;20512;-56
2021/09/15 05:09:22;;;;;;;0.87;0.87;;;;;;;18.30;100.00;99825.28;5075680;28;20560;-56
2021/09/15 05:11:49;;;;;;;0.40;0.30;;;;;;;18.40;100.00;99836.28;5075711;28;20485;-56
2021/09/15 05:14:16;;;;;;;1.23;1.23;;;;;;;18.44;100.00;99827.03;5075705;28;20449;-56
2021/09/15 05:16:43;;;;;;;0.50;0.30;;;;;;;18.23;100.00;99837.44;5075422;28;20991;-56
2021/09/15 05:19:10;;;;;;;0.70;0.70;;;;;;;18.45;100.00;99829.63;5075426;28;21007;-56
2021/09/15 05:21:36;;;;;;;1.13;1.13;;;;;;;18.69;100.00;99834.31;5075854;28;20515;-55
2021/09/15 05:24:04;;;;;;;0.50;0.50;;;;;;;18.61;100.00;99829.41;5075436;28;20492;-56
2021/09/15 05:26:30;;;;;;;0.50;0.40;;;;;;;18.47;100.00;99837.59;5075445;28;20480;-56
2021/09/15 05:28:57;;;;;;;0.50;0.50;;;;;;;18.41;100.00;99824.56;5073522;28;20477;-56
2021/09/15 05:31:24;;;;;;;0.60;0.60;;;;;;;18.41;100.00;99828.09;5068397;28;20503;-54
2021/09/15 05:33:51;;;;;;;0.50;0.50;;;;;;;18.50;100.00;99829.28;5075155;28;20503;-54
2021/09/15 05:36:18;;;;;;;0.60;0.40;;;;;;;18.55;100.00;99841.47;5075468;28;20446;-54
2021/09/15 05:38:45;;;;;;;1.50;0.60;;;;;;;18.50;100.00;99840.94;5075084;28;20497;-54
2021/09/15 05:41:12;;;;;;;0.63;0.63;;;;;;;18.57;100.00;99846.75;5075306;28;20499;-54
2021/09/15 05:43:39;;;;;;;0.40;0.30;;;;;;;18.59;100.00;99850.19;5074996;28;20518;-54
2021/09/15 05:46:06;;;;;;;0.40;0.30;;;;;;;18.55;100.00;99841.47;5075156;28;21056;-54
2021/09/15 05:48:32;;;;;;;0.40;0.20;;;;;;;18.56;100.00;99853.09;5074684;28;21002;-54
2021/09/15 05:50:59;;;;;;;0.50;0.43;;;;;;;18.59;100.00;99853.75;5074973;28;20455;-54
2021/09/15 05:53:26;;;;;;;3.33;1.13;;;;;;;18.57;100.00;99855.69;5074845;28;20943;-54
2021/09/15 05:55:53;;;;;;;0.50;0.50;;;;;;;18.58;100.00;99854.72;5074895;28;20453;-54
2021/09/15 05:58:21;;;;;;;1.17;1.17;;;;;;;18.55;100.00;99857.63;5074693;28;20501;-54
2021/09/15 06:00:48;;;;;;;0.50;0.40;;;;;;;18.60;100.00;99862.69;5056836;28;20446;-54
2021/09/15 06:03:15;;;;;;;0.73;0.73;;;;;;;18.56;100.00;99855.81;5074923;28;20446;-54
2021/09/15 06:05:42;;;;;;;0.40;0.30;;;;;;;18.65;100.00;99860.59;5074088;28;20477;-54
2021/09/15 06:08:09;;;;;;;0.40;0.20;;;;;;;18.62;100.00;99848.16;5074855;28;20474;-54
2021/09/15 06:10:35;;;;;;;1.53;1.53;;;;;;;18.58;100.00;99857.41;5074479;28;20521;-54
2021/09/15 06:13:02;;;;;;;1.07;1.07;;;;;;;18.46;100.00;99847.47;5074585;28;20975;-54
2021/09/15 06:15:30;;;;;;;1.33;1.07;;;;;;;18.45;100.00;99847.59;5074337;28;20446;-54
2021/09/15 06:18:02;;;;;;;0.93;0.93;;;;;;;18.59;100.00;99853.75;5074474;28;20470;-54
2021/09/15 06:20:29;;;;;;;0.40;0.30;;;;;;;18.67;100.00;99857.78;5074348;28;20846;-54
2021/09/15 06:22:55;;;;;;;1.20;1.13;;;;;;;18.64;100.00;99853.50;5074597;28;20938;-54
2021/09/15 06:25:24;;;;;;;2.10;1.03;;;;;;;18.61;100.00;99849.13;5074472;28;20462;-55
2021/09/15 06:27:52;;;;;;;0.53;0.50;;;;;;;18.70;100.00;99850.38;5074368;28;20519;-54
2021/09/15 06:30:19;;;;;;;1.67;0.50;;;;;;;18.63;100.00;99841.81;5074027;28;20539;-54
2021/09/15 06:32:46;;;;;;;0.67;0.67;;;;;;;18.67;100.00;99847.03;5074359;28;20455;-54
2021/09/15 06:35:13;;;;;;;5.03;2.20;;;;;;;18.70;100.00;99847.66;5074241;28;20523;-54
2021/09/15 06:37:41;;;;;;;1.40;1.23;;;;;;;18.81;100.00;99844.25;5074235;28;20477;-54
2021/09/15 06:40:09;;;;;;;0.40;0.30;;;;;;;18.90;100.00;99843.56;5074076;28;20478;-54
2021/09/15 06:42:36;;;;;;;0.40;0.30;;;;;;;18.93;100.00;99846.94;5074118;28;20827;-54
2021/09/15 06:45:04;;;;;;;2.50;2.30;;;;;;;19.03;100.00;99841.75;5056396;28;20507;-54
2021/09/15 06:47:31;;;;;;;2.50;1.43;;;;;;;19.04;100.00;99848.00;5074094;28;20531;-54
2021/09/15 06:49:58;;;;;;;2.20;0.97;;;;;;;19.11;100.00;99843.91;5073891;28;20489;-54
2021/09/15 06:52:25;;;;;;;0.40;0.30;;;;;;;19.07;100.00;99847.81;5073935;28;20450;-53
2021/09/15 06:54:52;;;;;;;0.87;0.60;;;;;;;19.06;100.00;99840.69;5073940;28;20488;-54
2021/09/15 06:57:19;;;;;;;0.50;0.30;;;;;;;19.17;100.00;99847.00;5073630;28;20994;-54
2021/09/15 06:59:46;;;;;;;1.53;1.53;;;;;;;19.12;100.00;99851.88;5056185;28;20481;-54
2021/09/15 07:02:13;;;;;;;0.40;0.30;;;;;;;19.17;100.00;99851.53;5073655;28;20446;-54
2021/09/15 07:04:40;;;;;;;0.60;0.60;;;;;;;19.24;100.00;99845.63;5055915;28;20481;-54
2021/09/15 07:07:07;;;;;;;12.03;2.60;;;;;;;19.27;100.00;99835.59;5073680;28;20496;-54
2021/09/15 07:09:33;;;;;;;1.57;1.57;;;;;;;19.17;100.00;99841.63;5073206;28;20890;-54
2021/09/15 07:12:02;;;;;;;0.80;0.80;;;;;;;19.22;100.00;99839.47;5073576;28;20478;-54
2021/09/15 07:14:29;;;;;;;0.80;0.80;;;;;;;19.27;100.00;99841.84;5073302;28;20484;-54
2021/09/15 07:16:56;;;;;;;1.50;0.90;;;;;;;19.28;100.00;99842.69;5073140;28;20591;-54
2021/09/15 07:19:22;;;;;;;0.60;0.60;;;;;;;19.32;100.00;99849.59;5072706;28;20484;-54
2021/09/15 07:21:49;;;;;;;0.40;0.20;;;;;;;19.40;100.00;99841.81;5073533;28;20977;-54
2021/09/15 07:24:17;;;;;;;1.03;0.83;;;;;;;19.49;100.00;99849.25;5073188;28;20446;-54
2021/09/15 07:26:45;;;;;;;0.40;0.23;;;;;;;19.53;100.00;99850.75;5073112;28;20507;-54
2021/09/15 07:29:12;;;;;;;0.70;0.70;;;;;;;19.58;100.00;99854.00;5073342;28;20525;-54
2021/09/15 07:31:39;;;;;;;0.40;0.30;;;;;;;19.62;100.00;99849.25;5073008;28;20551;-54
2021/09/15 07:34:06;;;;;;;0.40;0.30;;;;;;;19.66;100.00;99842.66;5073152;28;20477;-54
2021/09/15 07:36:37;;;;;;;0.40;0.30;;;;;;;19.72;100.00;99851.13;5072790;28;20454;-54
2021/09/15 07:39:04;;;;;;;0.50;0.43;;;;;;;19.78;100.00;99848.00;5072938;28;20853;-53
2021/09/15 07:41:32;;;;;;;3.07;2.77;;;;;;;19.80;100.00;99853.28;5072774;28;20424;-54
2021/09/15 07:44:01;;;;;;;0.40;0.20;;;;;;;19.91;100.00;99858.75;5072957;28;20943;-54
2021/09/15 07:46:28;;;;;;;0.40;0.30;;;;;;;19.98;100.00;99865.41;5072698;28;20446;-54
2021/09/15 07:48:55;;;;;;;1.33;0.70;;;;;;;20.01;100.00;99861.63;5054946;28;20497;-54
2021/09/15 07:51:21;;;;;;;2.20;2.10;;;;;;;19.97;100.00;99869.09;5072519;28;20625;-53
2021/09/15 07:53:48;;;;;;;0.50;0.50;;;;;;;20.00;100.00;99870.69;5072781;28;20450;-54
2021/09/15 07:56:15;;;;;;;0.40;0.30;;;;;;;20.02;100.00;99868.75;5072659;28;20481;-54
2021/09/15 07:58:42;;;;;;;0.80;0.80;;;;;;;20.00;100.00;99878.78;5072357;28;20957;-54
2021/09/15 08:01:09;;;;;;;0.53;0.53;;;;;;;20.10;100.00;99877.13;5082822;28;20443;-54
2021/09/15 08:03:36;;;;;;;0.50;0.50;;;;;;;20.07;100.00;99875.53;5062589;28;20504;-54
2021/09/15 08:06:05;;;;;;;0.40;0.30;;;;;;;20.10;100.00;99877.13;5056192;28;20484;-54
2021/09/15 08:08:32;;;;;;;0.40;0.20;;;;;;;20.16;100.00;99876.69;5073493;28;20464;-54
2021/09/15 08:11:00;;;;;;;0.40;0.30;;;;;;;20.16;100.00;99875.81;5073746;28;21009;-54
2021/09/15 08:13:27;;;;;;;3.27;1.03;;;;;;;20.27;100.00;99884.81;5072583;28;20448;-53
2021/09/15 08:15:54;;;;;;;0.47;0.40;;;;;;;20.27;100.00;99884.81;5072336;28;20515;-53
2021/09/15 08:18:21;;;;;;;0.87;0.87;;;;;;;20.39;100.00;99888.44;5072251;28;20967;-54
2021/09/15 08:20:58;;;;;;;0.47;0.47;;;;;;;20.46;100.00;99884.34;5072382;28;20442;-54
2021/09/15 08:23:24;;;;;;;1.43;1.33;;;;;;;20.55;100.00;99877.34;5072619;28;20998;-54
2021/09/15 08:25:52;;;;;;;0.40;0.30;;;;;;;20.66;100.00;99875.56;5072707;28;20492;-53
2021/09/15 08:28:19;;;;;;;0.80;0.63;;;;;;;20.64;100.00;99884.75;5072115;28;20462;-53
2021/09/15 08:30:46;;;;;;;0.40;0.27;;;;;;;20.69;100.00;99885.25;5071745;28;20939;-53
2021/09/15 08:33:13;;;;;;;0.80;0.80;;;;;;;20.77;100.00;99882.84;5072034;28;20515;-54
2021/09/15 08:35:40;;;;;;;3.03;1.80;;;;;;;20.77;100.00;99880.13;5054494;28;20906;-54
2021/09/15 08:38:11;;;;;;;0.40;0.20;;;;;;;20.87;100.00;99880.28;5071878;28;21056;-54
2021/09/15 08:40:39;;;;;;;0.40;0.20;;;;;;;20.98;100.00;99872.22;5059165;28;20801;-54
2021/09/15 08:43:06;;;;;;;0.40;0.23;;;;;;;21.05;100.00;99867.19;5071923;28;20420;-54
2021/09/15 08:45:33;;;;;;;1.17;0.70;;;;;;;21.20;100.00;99874.06;5071890;28;20446;-54
2021/09/15 08:48:02;;;;;;;0.40;0.20;;;;;;;21.24;100.00;99870.13;5071821;28;20504;-54
2021/09/15 08:50:30;;;;;;;0.40;0.30;;;;;;;21.21;100.00;99875.78;5072018;28;20910;-54
2021/09/15 08:52:58;;;;;;;0.60;0.57;;;;;;;21.35;100.00;99874.72;5071844;28;20485;-54
2021/09/15 08:55:25;;;;;;;0.70;0.67;;;;;;;21.42;100.00;99870.56;5071854;28;20482;-54
2021/09/15 08:57:52;;;;;;;0.40;0.30;;;;;;;21.59;100.00;99876.31;5071702;28;20470;-54
2021/09/15 09:00:19;;;;;;;2.23;2.13;;;;;;;21.48;100.00;99870.06;5081693;28;20851;-53
2021/09/15 09:02:50;;;;;;;0.40;0.20;;;;;;;21.38;100.00;99869.94;5062092;28;20425;-54
2021/09/15 09:05:18;;;;;;;1.13;0.53;;;;;;;21.45;100.00;99871.16;5072191;28;20421;-54
2021/09/15 09:07:45;;;;;;;0.40;0.20;;;;;;;21.57;100.00;99870.19;5071523;28;20883;-54
2021/09/15 09:10:14;;;;;;;0.50;0.50;;;;;;;21.59;100.00;99868.22;5071785;28;20497;-54
2021/09/15 09:12:44;;;;;;;0.40;0.20;;;;;;;21.66;100.00;99865.03;5071752;28;20484;-54
2021/09/15 09:15:23;;;;;;;0.60;0.60;;;;;;;21.57;100.00;99867.47;5072181;28;20441;-54
2021/09/15 09:17:50;;;;;;;0.40;0.27;;;;;;;21.61;100.00;99869.94;5071768;28;20436;-54
2021/09/15 09:20:27;;;;;;;0.63;0.60;;;;;;;21.78;100.00;99864.00;5071889;28;20520;-54
2021/09/15 09:23:04;;;;;;;0.93;0.93;;;;;;;21.77;100.00;99870.41;5034440;28;20417;-54
2021/09/15 09:25:33;;;;;;;0.40;0.20;;;;;;;21.86;100.00;99873.22;5067457;28;20431;-54
2021/09/15 09:28:01;;;;;;;1.80;1.70;;;;;;;21.83;100.00;99872.63;5071853;28;20483;-54
2021/09/15 09:30:31;;;;;;;0.40;0.20;;;;;;;21.70;100.00;99880.00;5071406;28;20490;-54
2021/09/15 09:32:59;;;;;;;0.50;0.50;;;;;;;21.64;100.00;99877.78;5071691;28;20478;-53
2021/09/15 09:35:39;;;;;;;0.60;0.60;;;;;;;21.70;100.00;99872.75;5071398;28;20516;-54
2021/09/15 09:38:15;;;;;;;0.40;0.20;;;;;;;21.81;100.00;99875.44;5071651;28;20516;-54
2021/09/15 09:41:08;;;;;;;0.40;0.30;;;;;;;21.96;100.00;99877.88;5058856;28;20474;-54
2021/09/15 09:43:46;;;;;;;0.40;0.30;;;;;;;21.95;100.00;99868.03;5075271;28;20515;-54
2021/09/15 09:46:20;;;;;;;0.40;0.20;;;;;;;22.04;100.00;99872.69;5075253;28;20901;-54
2021/09/15 09:48:48;;;;;;;0.40;0.20;;;;;;;21.99;100.00;99873.06;5075046;28;20888;-54
2021/09/15 09:51:39;;;;;;;0.50;0.30;;;;;;;22.09;100.00;99863.25;5057155;28;20464;-54
2021/09/15 09:54:35;;;;;;;0.50;0.50;;;;;;;22.08;100.00;99853.41;5074943;28;20424;-54
2021/09/15 09:57:02;;;;;;;0.40;0.20;;;;;;;22.05;100.00;99860.84;5042112;28;20541;-54
2021/09/15 09:59:31;;;;;;;0.40;0.30;;;;;;;21.97;100.00;99864.22;5077457;28;20463;-54
2021/09/15 10:02:02;;;;;;;0.40;0.30;;;;;;;22.12;100.00;99857.56;5075597;28;20508;-54
2021/09/15 10:04:32;;;;;;;0.40;0.20;;;;;;;22.21;100.00;99853.22;5072153;28;20421;-54
2021/09/15 10:07:01;;;;;;;0.57;0.50;;;;;;;22.11;100.00;99852.28;5075418;28;20469;-54
2021/09/15 10:09:28;;;;;;;0.40;0.20;;;;;;;22.16;100.00;99852.75;5074435;28;20885;-54
2021/09/15 10:11:57;;;;;;;0.40;0.20;;;;;;;22.09;100.00;99857.81;5074909;28;20432;-54
2021/09/15 10:14:26;;;;;;;1.37;1.27;;;;;;;21.90;100.00;99852.16;5056875;28;20446;-54
2021/09/15 10:17:07;;;;;;;0.43;0.30;;;;;;;22.09;100.00;99852.41;5074622;28;20490;-54
2021/09/15 10:19:39;;;;;;;0.40;0.30;;;;;;;22.01;100.00;99848.56;5062417;28;20935;-54
2021/09/15 10:22:07;;;;;;;0.40;0.20;;;;;;;22.02;100.00;99853.84;5074379;28;20450;-53
2021/09/15 10:24:57;;;;;;;0.50;0.50;;;;;;;22.25;100.00;99860.09;5074621;28;20446;-54
2021/09/15 10:27:26;;;;;;;1.30;1.17;;;;;;;22.48;100.00;99855.47;5075286;28;20605;-54
2021/09/15 10:30:13;;;;;;;0.40;0.30;;;;;;;22.40;100.00;99855.25;5074339;28;20494;-53
2021/09/15 10:32:46;;;;;;;0.40;0.20;;;;;;;22.33;100.00;99849.47;5063517;28;20492;-54
2021/09/15 10:35:13;;;;;;;0.40;0.30;;;;;;;22.22;100.00;99846.81;5074068;28;20442;-54
2021/09/15 10:37:40;;;;;;;0.40;0.20;;;;;;;22.05;100.00;99852.72;5074176;28;20501;-54
2021/09/15 10:40:09;;;;;;;0.40;0.20;;;;;;;22.23;100.00;99845.84;5074122;28;20494;-54
2021/09/15 10:42:37;;;;;;;14.07;1.13;;;;;;;22.29;100.00;99850.72;5074282;28;20432;-54
2021/09/15 10:45:14;;;;;;;0.40;0.30;;;;;;;22.39;100.00;99848.09;5074140;28;20450;-54
2021/09/15 10:48:08;;;;;;;9.23;1.23;;;;;;;22.55;100.00;99845.81;5074030;28;20486;-54
2021/09/15 10:50:40;;;;;;;0.40;0.20;;;;;;;22.60;100.00;99832.72;5050609;28;20490;-54
2021/09/15 10:53:07;;;;;;;0.40;0.20;;;;;;;22.81;100.00;99831.88;5055232;28;20452;-54
2021/09/15 10:55:50;;;;;;;0.40;0.30;;;;;;;22.92;100.00;99834.53;5073821;28;20452;-54
2021/09/15 10:58:19;;;;;;;0.40;0.20;;;;;;;22.74;100.00;99837.81;5073618;28;20587;-54
2021/09/15 11:00:48;;;;;;;0.40;0.30;;;;;;;23.16;100.00;99832.38;5042707;28;20453;-54
2021/09/15 11:03:36;;;;;;;0.40;0.20;;;;;;;22.93;100.00;99834.41;5061231;28;20503;-54
2021/09/15 11:06:06;;;;;;;0.40;0.23;;;;;;;23.01;100.00;99834.56;5055845;28;20446;-54
2021/09/15 11:08:45;;;;;;;1.67;1.03;;;;;;;22.71;100.00;99826.38;5086146;22;20501;-55
2021/09/15 11:11:32;;;;;;;0.97;0.83;;;;;;;22.89;100.00;99815.81;5062196;28;20464;-55
2021/09/15 11:14:06;;;;;;;11.50;2.07;;;;;;;22.97;100.00;99818.72;5051596;28;21005;-55
2021/09/15 11:16:35;;;;;;;0.50;0.50;;;;;;;23.08;100.00;99818.66;5064769;28;20500;-55
2021/09/15 11:19:11;;;;;;;0.40;0.20;;;;;;;23.20;100.00;99823.00;5036967;28;20964;-55
2021/09/15 11:21:43;;;;;;;0.40;0.30;;;;;;;23.17;100.00;99817.84;5044008;28;20447;-55
2021/09/15 11:24:15;;;;;;;0.50;0.40;;;;;;;23.25;100.00;99820.72;5053993;28;20503;-55
2021/09/15 11:26:54;;;;;;;0.47;0.30;;;;;;;23.50;100.00;99815.81;5054799;28;20448;-55
2021/09/15 11:29:53;;;;;;;0.40;0.20;;;;;;;23.25;100.00;99814.44;5029669;28;20476;-55
2021/09/15 11:32:22;;;;;;;0.87;0.70;;;;;;;23.37;100.00;99820.63;5054001;28;20491;-55
2021/09/15 11:34:51;;;;;;;0.40;0.30;;;;;;;23.09;100.00;99820.34;5054285;28;20552;-55
2021/09/15 11:37:29;;;;;;;0.40;0.20;;;;;;;23.07;100.00;99819.63;5036891;28;20858;-55
2021/09/15 11:39:59;;;;;;;0.70;0.53;;;;;;;23.18;100.00;99813.28;5054689;28;20453;-55